Decoded Metar for KMBL (MANISTEE in MI, USA) (IATA:MBL) | Meteo·Mobile Aviation Weather
aviador You're here:

KMBL Decoded Metar

MANISTEE in MI, USA
Report Time2019-10-18 12:56:00
UTC Time2019-10-18 13:33:36
Flight Rules vfr VFR
Wind090° at 05 kt
W.Decomp.*RWY 09: 5.0 kt HW 0.5 kt RCW
RWY 18: 0.5 kt HW 5 kt LCW
Visibility9999 m
Phenomena:N/A
Clouds:Overcast 032 Hf
Ceiling3,200 ft
Temp02°C (ISA -12)
Dew Point02°C (100% RH)
AAT-1.5°C
QNH1019 hPa
Density Alt-915 ft
Elevation620 ft
Report Wrong Elevation
Raw Report
KMBL 181256Z AUTO 09005KT 10SM OVC032 02/02 A3009 RMK AO2 SLP196
T00220022 FZRANO=

Extra information for KMBL:More info

Metar Taf Metar & Taf Last 4 Metars F.Rules Stats Wind Profile Meteogram Temp Stats Airport Information Weather charts Add Link Nearby VenuesMetar ALERT Operation Metar Decoded Social comments

AIRNAV info for KMBL